Mill Run, PA (15464)

4:10 PM EDT on September 17, 2014 (GMT -0400)
Indian Head | Change Station
CLOSE
Current Station
Personal Weather Station
Location: Indian Head, PA
Elevation: 1421 ft
Nearby Weather Stations

Elev 1421 ft 40.03 °N, 79.40 °W | Updated 10 minutes ago

Partly Cloudy
Partly Cloudy
80.6 °F
Feels Like 80 °F
N
2.2
Wind Variable Wind from NNE

Today
High -- | Low -- °F
--% Chance of Precip.
Yesterday
High -- | Low -- °F
Precip. -- in
7:00 AM 7:23 PM
Waning Crescent, 33% visible
Pressure 29.99 in
Visibility 20.0 miles
Clouds Mostly Cloudy 5000 ft
Heat Index 80 °F
Dew Point 53 °F
Humidity 38%
Rainfall 0.00 in
Snow Depth Not available.
UV 3 out of 12
Pollen 3.60 out of 12
Air Quality Not available.
Flu Activity Not available.
METAR KLBE 171950Z 28006KT 20SM BKN050 20/10 A2999

More Conditions Fewer Conditions

Pressure 29.99 in
Visibility 20.0 miles
Clouds Mostly Cloudy 5000 ft
Heat Index 80 °F
Dew Point 53 °F
Humidity 38%
Rainfall 0.00 in
Snow Depth Not available.
UV 3 out of 12
Pollen 3.60 out of 12
Air Quality Not available.
Flu Activity Not available.
METAR KLBE 171950Z 28006KT 20SM BKN050 20/10 A2999

More Conditions Fewer Conditions

10-Day Weather Forecast

Almanac

Astronomy

Sep. 17, 2014 Rise Set
Actual Time 7:00 AM EDT 7:23 PM EDT
Civil Twilight 6:33 AM EDT 7:50 PM EDT
Nautical Twilight 6:01 AM EDT 8:22 PM EDT
Astronomical Twilight 5:29 AM EDT 8:54 PM EDT
Moon 12:59 AM EDT 3:31 PM EDT
Length of Visible Light 13h 16m
Length of Day
12h 22m
Tomorrow will be 2m 37s shorter.
Waning Crescent, 33% of the Moon is Illuminated
Today
Waning Crescent
Sep 24
New
Oct 1
First Quarter
Oct 8
Full
Oct 15
Last Quarter

Today's Extremes

State Highs State Lows

Community

WunderPhotos

Upload Photos

1,754,157 photos uploaded!

Nearby

Snow Depth

Station Depth Elevation
No new snow has been reported.

Earthquake Activity

City Distance Mag. Time & Date
No recent earthquake activity has been reported nearby.
Minimum magnitude displayed is 2.5.

Coastal Water Temperatures

Place Temperature
No Stations Reporting

Nearby Weather Stations